sensor_id;sensor_type;location;lat;lon;timestamp;pressure;altitude;pressure_sealevel;temperature;humidity
13041;BME280;6587;42.728;23.288;2024-01-10T00:01:02;96449.19;;;-5.23;72.93
13041;BME280;6587;42.728;23.288;2024-01-10T00:03:29;96447.16;;;-5.11;73.13
13041;BME280;6587;42.728;23.288;2024-01-10T00:05:57;96446.16;;;-5.00;72.85
13041;BME280;6587;42.728;23.288;2024-01-10T00:08:24;96438.09;;;-4.99;72.85
13041;BME280;6587;42.728;23.288;2024-01-10T00:10:51;96449.22;;;-5.08;71.90
13041;BME280;6587;42.728;23.288;2024-01-10T00:13:21;96438.91;;;-4.98;72.10
13041;BME280;6587;42.728;23.288;2024-01-10T00:15:48;96440.44;;;-4.97;71.68
13041;BME280;6587;42.728;23.288;2024-01-10T00:18:16;96440.97;;;-4.95;71.53
13041;BME280;6587;42.728;23.288;2024-01-10T00:20:42;96446.41;;;-4.92;72.05
13041;BME280;6587;42.728;23.288;2024-01-10T00:23:09;96442.53;;;-4.89;72.33
13041;BME280;6587;42.728;23.288;2024-01-10T00:25:36;96442.03;;;-4.86;72.15
13041;BME280;6587;42.728;23.288;2024-01-10T00:28:03;96449.06;;;-4.76;72.08
13041;BME280;6587;42.728;23.288;2024-01-10T00:30:33;96452.41;;;-4.91;71.15
13041;BME280;6587;42.728;23.288;2024-01-10T00:33:00;96455.00;;;-4.86;71.16
13041;BME280;6587;42.728;23.288;2024-01-10T00:35:27;96446.97;;;-4.85;70.69
13041;BME280;6587;42.728;23.288;2024-01-10T00:37:53;96451.09;;;-4.94;70.38
13041;BME280;6587;42.728;23.288;2024-01-10T00:40:20;96452.63;;;-4.98;69.93
13041;BME280;6587;42.728;23.288;2024-01-10T00:42:47;96455.78;;;-4.91;71.40
13041;BME280;6587;42.728;23.288;2024-01-10T00:45:15;96457.63;;;-4.76;70.68
13041;BME280;6587;42.728;23.288;2024-01-10T00:47:43;96454.78;;;-4.79;70.25
13041;BME280;6587;42.728;23.288;2024-01-10T00:50:10;96456.59;;;-4.75;70.12
13041;BME280;6587;42.728;23.288;2024-01-10T00:52:37;96454.78;;;-4.69;71.05
13041;BME280;6587;42.728;23.288;2024-01-10T00:55:04;96456.84;;;-4.76;70.10
13041;BME280;6587;42.728;23.288;2024-01-10T00:57:31;96454.28;;;-4.71;70.65
13041;BME280;6587;42.728;23.288;2024-01-10T00:59:58;96451.16;;;-4.73;70.91
13041;BME280;6587;42.728;23.288;2024-01-10T01:02:25;96450.41;;;-4.64;70.09
13041;BME280;6587;42.728;23.288;2024-01-10T01:04:54;96460.00;;;-4.59;69.48
13041;BME280;6587;42.728;23.288;2024-01-10T01:07:20;96455.34;;;-4.62;69.12
13041;BME280;6587;42.728;23.288;2024-01-10T01:09:47;96454.56;;;-4.53;69.14
13041;BME280;6587;42.728;23.288;2024-01-10T01:12:14;96446.22;;;-4.60;69.21
13041;BME280;6587;42.728;23.288;2024-01-10T01:14:41;96451.44;;;-4.70;68.68
13041;BME280;6587;42.728;23.288;2024-01-10T01:17:08;96445.69;;;-4.77;69.62
13041;BME280;6587;42.728;23.288;2024-01-10T01:19:35;96445.97;;;-4.73;69.38
13041;BME280;6587;42.728;23.288;2024-01-10T01:22:04;96443.63;;;-4.65;69.27
13041;BME280;6587;42.728;23.288;2024-01-10T01:24:31;96450.91;;;-4.67;68.58
13041;BME280;6587;42.728;23.288;2024-01-10T01:26:57;96448.81;;;-4.75;68.75
13041;BME280;6587;42.728;23.288;2024-01-10T01:29:25;96444.66;;;-4.66;69.62
13041;BME280;6587;42.728;23.288;2024-01-10T01:31:51;96440.78;;;-4.58;69.91
13041;BME280;6587;42.728;23.288;2024-01-10T01:34:19;96445.69;;;-4.77;70.21
13041;BME280;6587;42.728;23.288;2024-01-10T01:36:46;96437.41;;;-4.69;69.83
13041;BME280;6587;42.728;23.288;2024-01-10T01:39:14;96433.25;;;-4.60;69.77
13041;BME280;6587;42.728;23.288;2024-01-10T01:41:41;96438.44;;;-4.75;68.84
13041;BME280;6587;42.728;23.288;2024-01-10T01:44:08;96438.44;;;-4.60;67.71
13041;BME280;6587;42.728;23.288;2024-01-10T01:46:35;96441.00;;;-4.85;68.71
13041;BME280;6587;42.728;23.288;2024-01-10T01:49:02;96437.63;;;-4.86;68.11
13041;BME280;6587;42.728;23.288;2024-01-10T01:51:31;96441.03;;;-4.60;68.37
13041;BME280;6587;42.728;23.288;2024-01-10T01:53:58;96436.09;;;-4.71;67.65
13041;BME280;6587;42.728;23.288;2024-01-10T01:56:27;96432.91;;;-4.89;68.43
13041;BME280;6587;42.728;23.288;2024-01-10T01:58:54;96422.28;;;-4.92;68.20
13041;BME280;6587;42.728;23.288;2024-01-10T02:01:21;96421.28;;;-4.81;65.94
13041;BME280;6587;42.728;23.288;2024-01-10T02:03:50;96425.69;;;-4.82;66.45
13041;BME280;6587;42.728;23.288;2024-01-10T02:06:17;96421.25;;;-4.76;65.94
13041;BME280;6587;42.728;23.288;2024-01-10T02:08:44;96422.06;;;-4.86;65.99
13041;BME280;6587;42.728;23.288;2024-01-10T02:11:11;96415.56;;;-4.78;65.54
13041;BME280;6587;42.728;23.288;2024-01-10T02:13:40;96411.13;;;-4.93;65.17
13041;BME280;6587;42.728;23.288;2024-01-10T02:16:07;96410.59;;;-4.90;64.42
13041;BME280;6587;42.728;23.288;2024-01-10T02:18:35;96415.50;;;-5.03;66.38
13041;BME280;6587;42.728;23.288;2024-01-10T02:21:01;96411.34;;;-4.99;66.50
13041;BME280;6587;42.728;23.288;2024-01-10T02:23:28;96417.34;;;-4.89;66.25
13041;BME280;6587;42.728;23.288;2024-01-10T02:25:58;96415.31;;;-4.76;65.53
13041;BME280;6587;42.728;23.288;2024-01-10T02:28:25;96407.78;;;-4.73;65.07
13041;BME280;6587;42.728;23.288;2024-01-10T02:30:52;96406.63;;;-5.22;63.39
13041;BME280;6587;42.728;23.288;2024-01-10T02:33:20;96411.09;;;-5.08;64.92
13041;BME280;6587;42.728;23.288;2024-01-10T02:35:47;96411.88;;;-5.02;64.87
13041;BME280;6587;42.728;23.288;2024-01-10T02:38:14;96411.34;;;-5.14;63.25
13041;BME280;6587;42.728;23.288;2024-01-10T02:40:41;96412.63;;;-5.12;63.76
13041;BME280;6587;42.728;23.288;2024-01-10T02:43:10;96410.00;;;-5.17;64.89
13041;BME280;6587;42.728;23.288;2024-01-10T02:45:37;96410.31;;;-5.03;63.67
13041;BME280;6587;42.728;23.288;2024-01-10T02:48:05;96411.34;;;-4.99;64.30
13041;BME280;6587;42.728;23.288;2024-01-10T02:50:31;96415.25;;;-5.02;65.00
13041;BME280;6587;42.728;23.288;2024-01-10T02:52:59;96418.13;;;-4.98;64.31
13041;BME280;6587;42.728;23.288;2024-01-10T02:55:25;96424.84;;;-5.07;64.33
13041;BME280;6587;42.728;23.288;2024-01-10T02:57:52;96425.31;;;-5.20;65.42
13041;BME280;6587;42.728;23.288;2024-01-10T03:00:21;96415.50;;;-5.08;64.59
13041;BME280;6587;42.728;23.288;2024-01-10T03:02:47;96409.06;;;-4.91;64.53
13041;BME280;6587;42.728;23.288;2024-01-10T03:05:14;96411.41;;;-4.89;64.41
13041;BME280;6587;42.728;23.288;2024-01-10T03:07:41;96406.72;;;-4.77;65.36
13041;BME280;6587;42.728;23.288;2024-01-10T03:10:09;96415.84;;;-4.74;64.71
13041;BME280;6587;42.728;23.288;2024-01-10T03:12:35;96406.19;;;-4.94;64.89
13041;BME280;6587;42.728;23.288;2024-01-10T03:15:04;96415.19;;;-5.17;64.53
13041;BME280;6587;42.728;23.288;2024-01-10T03:17:33;96411.34;;;-5.14;65.31
13041;BME280;6587;42.728;23.288;2024-01-10T03:20:01;96419.09;;;-5.19;64.80
13041;BME280;6587;42.728;23.288;2024-01-10T03:22:30;96419.03;;;-5.34;65.02
13041;BME280;6587;42.728;23.288;2024-01-10T03:24:57;96421.41;;;-5.23;65.35
13041;BME280;6587;42.728;23.288;2024-01-10T03:27:24;96422.16;;;-5.27;66.58
13041;BME280;6587;42.728;23.288;2024-01-10T03:29:51;96421.44;;;-5.18;64.62
13041;BME280;6587;42.728;23.288;2024-01-10T03:32:18;96423.78;;;-5.11;65.38
13041;BME280;6587;42.728;23.288;2024-01-10T03:34:46;96430.84;;;-5.02;65.62
13041;BME280;6587;42.728;23.288;2024-01-10T03:37:16;96431.88;;;-4.98;64.86
13041;BME280;6587;42.728;23.288;2024-01-10T03:39:43;96420.72;;;-4.93;66.27
13041;BME280;6587;42.728;23.288;2024-01-10T03:42:10;96424.88;;;-4.97;64.98
13041;BME280;6587;42.728;23.288;2024-01-10T03:44:37;96427.47;;;-4.97;66.66
13041;BME280;6587;42.728;23.288;2024-01-10T03:47:04;96425.44;;;-4.80;65.91
13041;BME280;6587;42.728;23.288;2024-01-10T03:49:31;96426.72;;;-4.82;65.34
13041;BME280;6587;42.728;23.288;2024-01-10T03:51:59;96429.81;;;-4.91;66.51
13041;BME280;6587;42.728;23.288;2024-01-10T03:54:26;96426.22;;;-4.79;65.27
13041;BME280;6587;42.728;23.288;2024-01-10T03:56:53;96430.63;;;-4.80;64.35
13041;BME280;6587;42.728;23.288;2024-01-10T03:59:20;96429.84;;;-4.81;64.20
13041;BME280;6587;42.728;23.288;2024-01-10T04:01:47;96431.59;;;-5.01;63.76
13041;BME280;6587;42.728;23.288;2024-01-10T04:04:13;96425.38;;;-5.00;65.03
13041;BME280;6587;42.728;23.288;2024-01-10T04:06:40;96426.94;;;-4.94;64.52
13041;BME280;6587;42.728;23.288;2024-01-10T04:09:09;96437.31;;;-4.99;64.89
13041;BME280;6587;42.728;23.288;2024-01-10T04:11:36;96437.34;;;-4.89;65.14
13041;BME280;6587;42.728;23.288;2024-01-10T04:14:03;96432.69;;;-4.82;65.94
13041;BME280;6587;42.728;23.288;2024-01-10T04:16:31;96438.91;;;-4.88;64.69
13041;BME280;6587;42.728;23.288;2024-01-10T04:18:58;96434.22;;;-4.96;64.83
13041;BME280;6587;42.728;23.288;2024-01-10T04:21:25;96433.69;;;-5.03;66.41
13041;BME280;6587;42.728;23.288;2024-01-10T04:23:52;96437.88;;;-4.87;65.64
13041;BME280;6587;42.728;23.288;2024-01-10T04:26:20;96441.53;;;-4.78;63.42
13041;BME280;6587;42.728;23.288;2024-01-10T04:28:48;96441.25;;;-4.87;63.58
13041;BME280;6587;42.728;23.288;2024-01-10T04:31:15;96442.06;;;-4.81;64.42
13041;BME280;6587;42.728;23.288;2024-01-10T04:33:42;96456.09;;;-4.72;64.62
13041;BME280;6587;42.728;23.288;2024-01-10T04:36:09;96449.84;;;-4.71;64.65
13041;BME280;6587;42.728;23.288;2024-01-10T04:38:36;96456.13;;;-4.47;62.75
13041;BME280;6587;42.728;23.288;2024-01-10T04:41:03;96456.63;;;-4.55;62.52
13041;BME280;6587;42.728;23.288;2024-01-10T04:43:31;96460.25;;;-4.61;63.33
13041;BME280;6587;42.728;23.288;2024-01-10T04:45:58;96466.47;;;-4.72;63.50
13041;BME280;6587;42.728;23.288;2024-01-10T04:48:25;96466.50;;;-4.62;64.41
13041;BME280;6587;42.728;23.288;2024-01-10T04:50:51;96468.34;;;-4.47;61.62
13041;BME280;6587;42.728;23.288;2024-01-10T04:53:19;96473.72;;;-4.79;60.78
13041;BME280;6587;42.728;23.288;2024-01-10T04:55:46;96474.78;;;-4.75;61.85
13041;BME280;6587;42.728;23.288;2024-01-10T04:58:13;96472.19;;;-4.70;63.04
13041;BME280;6587;42.728;23.288;2024-01-10T05:00:41;96476.38;;;-4.54;63.48
13041;BME280;6587;42.728;23.288;2024-01-10T05:03:08;96478.44;;;-4.51;61.72
13041;BME280;6587;42.728;23.288;2024-01-10T05:05:35;96476.94;;;-4.42;60.44
13041;BME280;6587;42.728;23.288;2024-01-10T05:08:02;96473.25;;;-4.51;59.26
13041;BME280;6587;42.728;23.288;2024-01-10T05:10:29;96474.75;;;-4.80;60.39
13041;BME280;6587;42.728;23.288;2024-01-10T05:12:56;96474.03;;;-4.55;61.15
13041;BME280;6587;42.728;23.288;2024-01-10T05:15:23;96478.47;;;-4.41;60.38
13041;BME280;6587;42.728;23.288;2024-01-10T05:17:51;96475.84;;;-4.51;59.26
13041;BME280;6587;42.728;23.288;2024-01-10T05:20:18;96476.63;;;-4.55;58.99
13041;BME280;6587;42.728;23.288;2024-01-10T05:22:45;96475.31;;;-4.68;58.72
13041;BME280;6587;42.728;23.288;2024-01-10T05:25:12;96482.84;;;-4.66;58.71
13041;BME280;6587;42.728;23.288;2024-01-10T05:27:39;96476.66;;;-4.50;59.90
13041;BME280;6587;42.728;23.288;2024-01-10T05:30:07;96481.56;;;-4.54;58.84
13041;BME280;6587;42.728;23.288;2024-01-10T05:32:34;96479.50;;;-4.62;60.53
13041;BME280;6587;42.728;23.288;2024-01-10T05:35:03;96487.00;;;-4.70;59.98
13041;BME280;6587;42.728;23.288;2024-01-10T05:37:30;96490.94;;;-4.53;59.52
13041;BME280;6587;42.728;23.288;2024-01-10T05:39:58;96486.75;;;-4.54;58.29
13041;BME280;6587;42.728;23.288;2024-01-10T05:42:25;96494.50;;;-4.74;58.98
13041;BME280;6587;42.728;23.288;2024-01-10T05:44:52;96489.81;;;-4.77;59.42
13041;BME280;6587;42.728;23.288;2024-01-10T05:47:18;96502.28;;;-4.79;59.83
13041;BME280;6587;42.728;23.288;2024-01-10T05:49:45;96494.00;;;-4.66;61.10
13041;BME280;6587;42.728;23.288;2024-01-10T05:52:13;96492.72;;;-4.58;61.03
13041;BME280;6587;42.728;23.288;2024-01-10T05:54:40;96488.34;;;-4.53;59.50
13041;BME280;6587;42.728;23.288;2024-01-10T05:57:07;96498.72;;;-4.58;60.07
13041;BME280;6587;42.728;23.288;2024-01-10T05:59:34;96498.72;;;-4.53;60.60
13041;BME280;6587;42.728;23.288;2024-01-10T06:02:02;96510.13;;;-4.64;58.34
13041;BME280;6587;42.728;23.288;2024-01-10T06:04:29;96505.91;;;-4.85;58.57
13041;BME280;6587;42.728;23.288;2024-01-10T06:06:58;96511.56;;;-5.03;58.43
13041;BME280;6587;42.728;23.288;2024-01-10T06:09:26;96509.13;;;-5.20;59.46
13041;BME280;6587;42.728;23.288;2024-01-10T06:11:53;96510.97;;;-5.20;58.80
13041;BME280;6587;42.728;23.288;2024-01-10T06:14:20;96521.66;;;-5.07;60.19
13041;BME280;6587;42.728;23.288;2024-01-10T06:16:47;96517.78;;;-4.99;59.46
13041;BME280;6587;42.728;23.288;2024-01-10T06:19:14;96523.50;;;-4.97;58.75
13041;BME280;6587;42.728;23.288;2024-01-10T06:21:40;96521.88;;;-5.13;57.01
13041;BME280;6587;42.728;23.288;2024-01-10T06:24:07;96526.09;;;-5.49;57.15
13041;BME280;6587;42.728;23.288;2024-01-10T06:26:36;96530.97;;;-5.16;59.05
13041;BME280;6587;42.728;23.288;2024-01-10T06:29:03;96535.78;;;-4.82;59.81
13041;BME280;6587;42.728;23.288;2024-01-10T06:31:30;96532.78;;;-5.11;58.54
13041;BME280;6587;42.728;23.288;2024-01-10T06:33:56;96533.91;;;-4.97;58.71
13041;BME280;6587;42.728;23.288;2024-01-10T06:36:23;96539.88;;;-4.92;57.86
13041;BME280;6587;42.728;23.288;2024-01-10T06:38:50;96536.53;;;-4.92;57.96
13041;BME280;6587;42.728;23.288;2024-01-10T06:41:17;96542.59;;;-4.71;57.56
13041;BME280;6587;42.728;23.288;2024-01-10T06:43:50;96546.31;;;-5.04;56.20
13041;BME280;6587;42.728;23.288;2024-01-10T06:46:17;96548.19;;;-4.90;56.17
13041;BME280;6587;42.728;23.288;2024-01-10T06:48:44;96547.94;;;-4.88;57.28
13041;BME280;6587;42.728;23.288;2024-01-10T06:51:12;96557.03;;;-4.91;58.18
13041;BME280;6587;42.728;23.288;2024-01-10T06:53:39;96551.09;;;-4.76;56.79
13041;BME280;6587;42.728;23.288;2024-01-10T06:56:07;96558.72;;;-4.59;58.02
13041;BME280;6587;42.728;23.288;2024-01-10T06:58:35;96555.31;;;-4.70;57.01
13041;BME280;6587;42.728;23.288;2024-01-10T07:01:03;96562.50;;;-4.82;56.87
13041;BME280;6587;42.728;23.288;2024-01-10T07:03:31;96557.91;;;-4.65;58.12
13041;BME280;6587;42.728;23.288;2024-01-10T07:05:57;96564.19;;;-4.46;57.81
13041;BME280;6587;42.728;23.288;2024-01-10T07:08:25;96563.19;;;-4.45;57.78
13041;BME280;6587;42.728;23.288;2024-01-10T07:10:52;96559.00;;;-4.46;57.43
13041;BME280;6587;42.728;23.288;2024-01-10T07:13:21;96565.50;;;-4.48;57.27
13041;BME280;6587;42.728;23.288;2024-01-10T07:15:48;96569.41;;;-4.41;59.15
13041;BME280;6587;42.728;23.288;2024-01-10T07:18:17;96567.91;;;-4.12;59.38
13041;BME280;6587;42.728;23.288;2024-01-10T07:20:44;96569.50;;;-4.11;58.79
13041;BME280;6587;42.728;23.288;2024-01-10T07:23:11;96570.78;;;-4.08;58.13
13041;BME280;6587;42.728;23.288;2024-01-10T07:25:38;96568.97;;;-4.13;59.42
13041;BME280;6587;42.728;23.288;2024-01-10T07:28:05;96567.44;;;-3.89;59.39
13041;BME280;6587;42.728;23.288;2024-01-10T07:30:32;96569.78;;;-3.77;59.68
13041;BME280;6587;42.728;23.288;2024-01-10T07:32:59;96575.75;;;-3.82;59.71
13041;BME280;6587;42.728;23.288;2024-01-10T07:35:28;96580.19;;;-3.77;59.58
13041;BME280;6587;42.728;23.288;2024-01-10T07:37:55;96584.09;;;-3.80;59.75
13041;BME280;6587;42.728;23.288;2024-01-10T07:40:23;96590.84;;;-3.74;60.52
13041;BME280;6587;42.728;23.288;2024-01-10T07:42:49;96589.78;;;-4.03;59.73
13041;BME280;6587;42.728;23.288;2024-01-10T07:45:16;96589.03;;;-3.93;59.00
13041;BME280;6587;42.728;23.288;2024-01-10T07:47:43;96583.03;;;-3.94;57.94
13041;BME280;6587;42.728;23.288;2024-01-10T07:50:12;96586.69;;;-4.00;58.35
13041;BME280;6587;42.728;23.288;2024-01-10T07:52:42;96585.16;;;-3.56;58.07
13041;BME280;6587;42.728;23.288;2024-01-10T07:55:09;96588.78;;;-3.57;58.27
13041;BME280;6587;42.728;23.288;2024-01-10T07:57:37;96591.91;;;-3.50;56.68
13041;BME280;6587;42.728;23.288;2024-01-10T08:00:05;96589.81;;;-3.48;56.80
13041;BME280;6587;42.728;23.288;2024-01-10T08:02:35;96583.31;;;-3.65;56.88
13041;BME280;6587;42.728;23.288;2024-01-10T08:05:03;96592.13;;;-3.91;56.30
13041;BME280;6587;42.728;23.288;2024-01-10T08:07:34;96589.06;;;-3.68;57.18
13041;BME280;6587;42.728;23.288;2024-01-10T08:10:04;96589.28;;;-3.30;56.79
13041;BME280;6587;42.728;23.288;2024-01-10T08:12:31;96591.91;;;-3.19;56.24
13041;BME280;6587;42.728;23.288;2024-01-10T08:14:58;96592.34;;;-2.92;56.27
13041;BME280;6587;42.728;23.288;2024-01-10T08:17:25;96597.28;;;-2.86;55.24
13041;BME280;6587;42.728;23.288;2024-01-10T08:19:52;96593.34;;;-2.83;54.88
13041;BME280;6587;42.728;23.288;2024-01-10T08:22:19;96599.13;;;-2.91;54.07
13041;BME280;6587;42.728;23.288;2024-01-10T08:24:46;96595.41;;;-2.70;53.59
13041;BME280;6587;42.728;23.288;2024-01-10T08:27:14;96596.94;;;-2.64;54.40
13041;BME280;6587;42.728;23.288;2024-01-10T08:29:42;96596.41;;;-2.51;52.84
13041;BME280;6587;42.728;23.288;2024-01-10T08:32:10;96592.69;;;-2.35;52.79
13041;BME280;6587;42.728;23.288;2024-01-10T08:34:37;96591.31;;;-1.79;52.24
13041;BME280;6587;42.728;23.288;2024-01-10T08:37:04;96600.06;;;-1.60;50.87
13041;BME280;6587;42.728;23.288;2024-01-10T08:39:31;96601.94;;;-1.32;50.41
13041;BME280;6587;42.728;23.288;2024-01-10T08:42:00;96598.28;;;-0.79;49.35
13041;BME280;6587;42.728;23.288;2024-01-10T08:44:28;96594.56;;;-0.96;47.40
13041;BME280;6587;42.728;23.288;2024-01-10T08:46:56;96595.09;;;-1.28;45.77
13041;BME280;6587;42.728;23.288;2024-01-10T08:49:24;96599.97;;;-1.16;46.84
13041;BME280;6587;42.728;23.288;2024-01-10T08:51:52;96608.88;;;-1.51;44.86
13041;BME280;6587;42.728;23.288;2024-01-10T08:54:20;96603.50;;;-1.65;44.73
13041;BME280;6587;42.728;23.288;2024-01-10T08:56:48;96595.69;;;-0.79;44.32
13041;BME280;6587;42.728;23.288;2024-01-10T08:59:14;96593.66;;;-0.40;43.62
13041;BME280;6587;42.728;23.288;2024-01-10T09:01:43;96591.09;;;-0.45;45.02
13041;BME280;6587;42.728;23.288;2024-01-10T09:04:10;96593.53;;;-0.30;44.79
13041;BME280;6587;42.728;23.288;2024-01-10T09:06:37;96590.00;;;-0.39;44.17
13041;BME280;6587;42.728;23.288;2024-01-10T09:09:04;96583.88;;;-0.11;43.55
13041;BME280;6587;42.728;23.288;2024-01-10T09:11:32;96589.31;;;0.30;42.85
13041;BME280;6587;42.728;23.288;2024-01-10T09:13:59;96580.84;;;0.20;41.86
13041;BME280;6587;42.728;23.288;2024-01-10T09:16:26;96578.91;;;0.44;41.67
13041;BME280;6587;42.728;23.288;2024-01-10T09:18:54;96583.19;;;1.44;41.41
13041;BME280;6587;42.728;23.288;2024-01-10T09:21:22;96582.78;;;1.78;39.66
13041;BME280;6587;42.728;23.288;2024-01-10T09:23:50;96581.44;;;2.16;40.71
13041;BME280;6587;42.728;23.288;2024-01-10T09:26:17;96585.66;;;2.61;39.99
13041;BME280;6587;42.728;23.288;2024-01-10T09:28:44;96581.41;;;2.30;39.19
13041;BME280;6587;42.728;23.288;2024-01-10T09:31:11;96582.47;;;2.29;39.37
13041;BME280;6587;42.728;23.288;2024-01-10T09:33:38;96584.97;;;1.98;38.64
13041;BME280;6587;42.728;23.288;2024-01-10T09:36:06;96580.09;;;2.05;38.43
13041;BME280;6587;42.728;23.288;2024-01-10T09:38:35;96570.34;;;2.41;38.04
13041;BME280;6587;42.728;23.288;2024-01-10T09:41:03;96569.09;;;2.83;37.79
13041;BME280;6587;42.728;23.288;2024-01-10T09:43:31;96574.53;;;3.17;38.13
13041;BME280;6587;42.728;23.288;2024-01-10T09:46:00;96574.34;;;3.44;36.42
13041;BME280;6587;42.728;23.288;2024-01-10T09:48:27;96570.56;;;3.28;36.84
13041;BME280;6587;42.728;23.288;2024-01-10T09:50:55;96569.09;;;4.26;37.15
13041;BME280;6587;42.728;23.288;2024-01-10T09:53:24;96561.16;;;3.36;35.92
13041;BME280;6587;42.728;23.288;2024-01-10T09:55:52;96557.94;;;3.08;35.01
13041;BME280;6587;42.728;23.288;2024-01-10T09:58:23;96558.94;;;3.20;35.65
13041;BME280;6587;42.728;23.288;2024-01-10T10:00:50;96560.75;;;3.59;35.51
13041;BME280;6587;42.728;23.288;2024-01-10T10:03:18;96549.88;;;3.44;37.08
13041;BME280;6587;42.728;23.288;2024-01-10T10:05:45;96546.97;;;3.54;35.39
13041;BME280;6587;42.728;23.288;2024-01-10T10:08:13;96550.50;;;4.22;36.79
13041;BME280;6587;42.728;23.288;2024-01-10T10:10:42;96543.84;;;4.16;36.03
13041;BME280;6587;42.728;23.288;2024-01-10T10:13:11;96545.06;;;4.36;36.23
13041;BME280;6587;42.728;23.288;2024-01-10T10:15:57;96537.28;;;4.56;34.20
13041;BME280;6587;42.728;23.288;2024-01-10T10:18:25;96530.97;;;4.15;34.36
13041;BME280;6587;42.728;23.288;2024-01-10T10:21:06;96527.13;;;5.01;34.29
13041;BME280;6587;42.728;23.288;2024-01-10T10:23:33;96528.44;;;5.53;34.36
13041;BME280;6587;42.728;23.288;2024-01-10T10:26:10;96530.22;;;5.99;32.63
13041;BME280;6587;42.728;23.288;2024-01-10T10:28:40;96525.25;;;6.38;33.63
13041;BME280;6587;42.728;23.288;2024-01-10T10:31:07;96519.16;;;6.26;32.80
13041;BME280;6587;42.728;23.288;2024-01-10T10:33:34;96517.84;;;6.97;33.26
13041;BME280;6587;42.728;23.288;2024-01-10T10:36:01;96516.13;;;7.37;32.39
13041;BME280;6587;42.728;23.288;2024-01-10T10:38:28;96501.13;;;6.73;33.42
13041;BME280;6587;42.728;23.288;2024-01-10T10:40:55;96503.09;;;7.68;30.41
13041;BME280;6587;42.728;23.288;2024-01-10T10:43:29;96500.13;;;7.58;32.04
13041;BME280;6587;42.728;23.288;2024-01-10T10:46:01;96498.00;;;8.39;29.73
13041;BME280;6587;42.728;23.288;2024-01-10T10:48:32;96487.22;;;8.75;30.44
13041;BME280;6587;42.728;23.288;2024-01-10T10:51:04;96485.59;;;9.64;28.93
13041;BME280;6587;42.728;23.288;2024-01-10T10:53:33;96482.72;;;11.06;28.13
13041;BME280;6587;42.728;23.288;2024-01-10T10:56:00;96483.75;;;10.03;25.83
13041;BME280;6587;42.728;23.288;2024-01-10T10:58:32;96484.91;;;10.78;26.71
13041;BME280;6587;42.728;23.288;2024-01-10T11:01:03;96468.69;;;9.72;26.04
13041;BME280;6587;42.728;23.288;2024-01-10T11:03:31;96465.94;;;12.03;25.84
13041;BME280;6587;42.728;23.288;2024-01-10T11:06:01;96466.38;;;11.07;25.67
13041;BME280;6587;42.728;23.288;2024-01-10T11:08:30;96462.88;;;11.26;27.29
13041;BME280;6587;42.728;23.288;2024-01-10T11:11:01;96463.34;;;12.06;26.02
13041;BME280;6587;42.728;23.288;2024-01-10T11:13:42;96458.69;;;12.33;25.53
13041;BME280;6587;42.728;23.288;2024-01-10T11:16:29;96453.28;;;13.39;23.64
13041;BME280;6587;42.728;23.288;2024-01-10T11:19:14;96452.47;;;13.89;22.66
13041;BME280;6587;42.728;23.288;2024-01-10T11:21:56;96452.16;;;15.15;23.05
13041;BME280;6587;42.728;23.288;2024-01-10T11:24:27;96448.59;;;12.86;24.66
13041;BME280;6587;42.728;23.288;2024-01-10T11:27:06;96449.25;;;12.09;25.88
13041;BME280;6587;42.728;23.288;2024-01-10T11:29:37;96442.69;;;14.18;23.70
13041;BME280;6587;42.728;23.288;2024-01-10T11:32:05;96447.41;;;13.74;23.83
13041;BME280;6587;42.728;23.288;2024-01-10T11:34:35;96437.44;;;14.39;23.94
13041;BME280;6587;42.728;23.288;2024-01-10T11:37:12;96430.94;;;14.47;22.20
13041;BME280;6587;42.728;23.288;2024-01-10T11:39:41;96424.03;;;13.60;22.38
13041;BME280;6587;42.728;23.288;2024-01-10T11:42:09;96427.63;;;15.24;22.77
13041;BME280;6587;42.728;23.288;2024-01-10T11:44:48;96420.97;;;16.99;21.89
13041;BME280;6587;42.728;23.288;2024-01-10T11:47:15;96421.50;;;15.06;22.51
13041;BME280;6587;42.728;23.288;2024-01-10T11:49:53;96418.81;;;15.62;20.84
13041;BME280;6587;42.728;23.288;2024-01-10T11:52:22;96413.06;;;15.46;20.98
13041;BME280;6587;42.728;23.288;2024-01-10T11:54:49;96413.53;;;13.99;22.51
13041;BME280;6587;42.728;23.288;2024-01-10T11:57:19;96407.81;;;14.04;23.65
13041;BME280;6587;42.728;23.288;2024-01-10T11:59:50;96406.13;;;13.17;23.66
13041;BME280;6587;42.728;23.288;2024-01-10T12:02:18;96405.72;;;13.69;24.36
13041;BME280;6587;42.728;23.288;2024-01-10T12:04:45;96397.25;;;13.60;24.32
13041;BME280;6587;42.728;23.288;2024-01-10T12:07:13;96393.84;;;14.60;23.26
13041;BME280;6587;42.728;23.288;2024-01-10T12:09:40;96390.03;;;12.70;23.47
13041;BME280;6587;42.728;23.288;2024-01-10T12:12:07;96394.63;;;11.18;25.65
13041;BME280;6587;42.728;23.288;2024-01-10T12:14:34;96391.06;;;9.67;27.37
13041;BME280;6587;42.728;23.288;2024-01-10T12:17:05;96387.34;;;9.71;27.72
13041;BME280;6587;42.728;23.288;2024-01-10T12:19:34;96381.28;;;9.90;28.45
13041;BME280;6587;42.728;23.288;2024-01-10T12:22:00;96371.22;;;11.86;26.96
13041;BME280;6587;42.728;23.288;2024-01-10T12:24:28;96378.94;;;13.62;25.06
13041;BME280;6587;42.728;23.288;2024-01-10T12:26:56;96380.31;;;12.48;26.09
13041;BME280;6587;42.728;23.288;2024-01-10T12:29:23;96378.16;;;12.64;26.83
13041;BME280;6587;42.728;23.288;2024-01-10T12:31:50;96382.09;;;13.21;25.37
13041;BME280;6587;42.728;23.288;2024-01-10T12:34:19;96381.06;;;13.36;24.95
13041;BME280;6587;42.728;23.288;2024-01-10T12:36:46;96383.16;;;13.13;25.77
13041;BME280;6587;42.728;23.288;2024-01-10T12:39:13;96384.97;;;13.52;26.67
13041;BME280;6587;42.728;23.288;2024-01-10T12:41:41;96397.72;;;14.87;24.44
13041;BME280;6587;42.728;23.288;2024-01-10T12:44:10;96384.84;;;13.99;25.09
13041;BME280;6587;42.728;23.288;2024-01-10T12:46:49;96386.44;;;12.52;26.45
13041;BME280;6587;42.728;23.288;2024-01-10T12:49:16;96382.78;;;10.48;29.48
13041;BME280;6587;42.728;23.288;2024-01-10T12:51:44;96382.84;;;10.96;28.72
13041;BME280;6587;42.728;23.288;2024-01-10T12:54:13;96389.22;;;11.63;28.35
13041;BME280;6587;42.728;23.288;2024-01-10T12:56:40;96386.28;;;13.18;27.82
13041;BME280;6587;42.728;23.288;2024-01-10T12:59:07;96383.75;;;12.92;26.89
13041;BME280;6587;42.728;23.288;2024-01-10T13:01:36;96388.09;;;11.16;28.94
13041;BME280;6587;42.728;23.288;2024-01-10T13:04:03;96383.03;;;10.39;29.20
13041;BME280;6587;42.728;23.288;2024-01-10T13:06:30;96384.50;;;11.04;30.28